Long Lake, Indiana
Current Conditions -  °F | °C
As of 3:35 PM on Wednesday 28 Jan 2015 (Local Time) from KANQ Reporting Station
Clear Clear  
Wind Chill: 16°   Ceiling: Unl
Heat Index: 25°   Visibility: 10mi
Dew Point:   Wind: 8mph
Humidity: 50%   Direction: 170°S
Pressure: 30.22"   Gusts: NA
Location:  41.7284°N, 84.9169°W
Report Text: KANQ 282035Z AUTO 17007KT 10SM CLR M04/M13 A3022 RMK
Loading
Personal Weather Stations






























Interactive Weather Map New forecast layout! Learn more

10-Day Weather Forecast

Advertisements
Track Severe Weather on mobile